Time;durP1;ratioP1;P1;durP2;ratioP2;P2;SDS_P1;SDS_P2;PMS_P1;PMS_P2;Temp;Humidity;BMP_temperature;BMP_pressure;BME280_temperature;BME280_humidity;BME280_pressure;Samples;Min_cycle;Max_cycle;Signal;HPM_P1;HPM_P2
2021/04/14 00:14:07;;;;;;;8.40;5.93;;;;;;;18.24;36.74;102145.00;31438541;28;20047;-60
2021/04/14 00:29:08;;;;;;;10.40;6.57;;;;;;;18.17;36.20;102141.88;31363938;28;20287;-60
2021/04/14 00:44:09;;;;;;;8.53;6.23;;;;;;;18.12;36.69;102143.91;31403402;28;20035;-59
2021/04/14 00:59:10;;;;;;;7.97;5.80;;;;;;;18.06;35.87;102139.03;31415021;28;20883;-60
2021/04/14 01:14:11;;;;;;;7.87;5.57;;;;;;;18.04;36.21;102133.00;31375322;28;20275;-59
2021/04/14 01:29:12;;;;;;;9.70;6.13;;;;;;;17.99;35.99;102134.13;31358541;28;20291;-59
2021/04/14 01:44:13;;;;;;;8.10;5.07;;;;;;;17.95;36.27;102123.88;31399265;28;20302;-60
2021/04/14 01:59:14;;;;;;;8.23;5.68;;;;;;;17.88;36.48;102123.38;31497219;28;20029;-60
2021/04/14 02:14:15;;;;;;;8.90;5.40;;;;;;;17.85;37.02;102122.72;31480527;28;20047;-60
2021/04/14 02:29:16;;;;;;;8.13;4.83;;;;;;;17.79;36.96;102113.38;31479973;28;20657;-60
2021/04/14 02:44:17;;;;;;;7.23;4.80;;;;;;;17.76;36.91;102126.72;31454742;28;20295;-61
2021/04/14 02:59:18;;;;;;;8.77;5.00;;;;;;;17.74;36.77;102124.16;31375755;28;20644;-60
2021/04/14 03:14:19;;;;;;;6.75;4.35;;;;;;;17.70;37.36;102117.38;31372691;28;20298;-60
2021/04/14 03:29:20;;;;;;;6.43;4.30;;;;;;;17.68;37.55;102115.78;31371761;28;20394;-60
2021/04/14 03:44:21;;;;;;;9.23;4.22;;;;;;;17.64;36.87;102120.38;31411378;28;20286;-60
2021/04/14 03:59:21;;;;;;;6.13;4.00;;;;;;;17.61;36.92;102114.44;31492571;28;20371;-60
2021/04/14 04:14:24;;;;;;;6.07;3.70;;;;;;;17.61;36.44;102110.03;31491112;28;20318;-59
2021/04/14 04:29:25;;;;;;;6.65;3.65;;;;;;;17.57;37.12;102126.94;31488340;28;20282;-59
2021/04/14 04:44:26;;;;;;;6.23;4.10;;;;;;;17.58;36.91;102144.38;31444304;28;20045;-58
2021/04/14 04:59:27;;;;;;;6.37;3.57;;;;;;;17.59;36.83;102148.69;31362001;28;20685;-58
2021/04/14 05:14:28;;;;;;;4.67;2.73;;;;;;;17.64;36.99;102159.81;31362545;28;20301;-56
2021/04/14 05:29:29;;;;;;;5.77;3.00;;;;;;;17.67;36.57;102170.16;31360995;28;20781;-59
2021/04/14 05:44:31;;;;;;;6.82;2.90;;;;;;;17.71;37.31;102191.88;31403117;28;20303;-60
2021/04/14 05:59:32;;;;;;;5.23;2.80;;;;;;;17.73;36.32;102188.22;31456273;28;20028;-59
2021/04/14 06:14:32;;;;;;;6.10;2.90;;;;;;;17.76;36.02;102193.28;31426895;28;20307;-62
2021/04/14 06:29:34;;;;;;;14.18;3.88;;;;;;;17.72;33.95;102194.41;31431844;28;20382;-58
2021/04/14 06:44:37;;;;;;;9.02;2.95;;;;;;;15.60;33.18;102199.28;31496398;28;20025;-55
2021/04/14 06:59:38;;;;;;;9.65;3.35;;;;;;;16.26;37.45;102203.97;31488056;28;20048;-60
2021/04/14 07:14:39;;;;;;;8.20;3.05;;;;;;;16.76;33.30;102198.72;31466190;28;20094;-59
2021/04/14 07:29:45;;;;;;;9.57;4.30;;;;;;;17.17;32.03;102200.94;31478959;28;20055;-59
2021/04/14 07:44:58;;;;;;;9.85;3.10;;;;;;;17.86;32.96;102203.31;31467340;28;20298;-58
2021/04/14 08:00:14;;;;;;;8.90;2.67;;;;;;;18.61;33.22;102201.53;31496738;28;20101;-59
2021/04/14 08:15:17;;;;;;;12.43;2.83;;;;;;;18.82;33.63;102199.41;31510125;28;20484;-58
2021/04/14 08:30:20;;;;;;;6.57;2.55;;;;;;;20.01;31.76;102180.34;31476550;28;20481;-59
2021/04/14 08:45:30;;;;;;;6.40;2.17;;;;;;;21.50;29.03;102167.31;31484346;28;20024;-60
2021/04/14 09:00:31;;;;;;;5.80;2.33;;;;;;;19.58;32.84;102162.06;31469504;28;20041;-59
2021/04/14 09:15:32;;;;;;;7.97;2.67;;;;;;;19.93;30.94;102161.56;31490606;28;20028;-60
2021/04/14 09:30:57;;;;;;;9.23;3.93;;;;;;;20.87;29.57;102144.59;31458789;28;20699;-57
2021/04/14 09:46:00;;;;;;;7.00;3.47;;;;;;;27.07;20.48;102127.75;31408353;28;20295;-60
2021/04/14 10:01:28;;;;;;;6.50;3.30;;;;;;;21.73;27.87;102136.50;31511896;28;20044;-58
2021/04/14 10:16:29;;;;;;;7.65;3.78;;;;;;;25.49;22.62;102115.13;31478162;28;20075;-58
2021/04/14 10:31:30;;;;;;;8.07;3.50;;;;;;;21.62;27.93;102133.00;31408468;28;20024;-58
2021/04/14 10:46:32;;;;;;;7.27;3.10;;;;;;;22.15;27.14;102109.53;31392576;28;20772;-57
2021/04/14 11:01:35;;;;;;;7.57;2.70;;;;;;;21.93;28.96;102107.72;31354545;28;20508;-62
2021/04/14 11:16:37;;;;;;;5.38;2.50;;;;;;;21.44;28.93;102108.75;31380707;28;20135;-62
2021/04/14 11:31:39;;;;;;;5.72;2.65;;;;;;;20.75;29.99;102093.44;31464380;28;20081;-61
2021/04/14 11:46:41;;;;;;;5.10;2.10;;;;;;;20.55;30.51;102093.97;31404890;28;20044;-59
2021/04/14 12:01:46;;;;;;;6.40;2.20;;;;;;;20.73;30.19;102090.09;31434470;28;20540;-59
2021/04/14 12:16:47;;;;;;;5.10;2.03;;;;;;;21.34;29.45;102074.16;31435596;28;20040;-59
2021/04/14 12:31:48;;;;;;;4.97;1.90;;;;;;;20.70;30.34;102079.72;31524013;28;20024;-59
2021/04/14 12:46:51;;;;;;;4.80;1.80;;;;;;;20.24;30.63;102075.00;31454950;28;20299;-58
2021/04/14 13:01:54;;;;;;;4.78;1.88;;;;;;;20.09;30.62;102080.41;31427776;28;20299;-59
2021/04/14 13:16:58;;;;;;;4.13;1.70;;;;;;;20.33;29.97;102073.53;31498288;28;20045;-60
2021/04/14 13:32:12;;;;;;;4.65;1.75;;;;;;;20.58;29.34;102072.66;31455422;28;20230;-58
2021/04/14 13:47:20;;;;;;;5.30;1.48;;;;;;;20.63;29.81;102063.44;31451001;28;20040;-58
2021/04/14 14:02:34;;;;;;;7.95;2.67;;;;;;;20.51;30.69;102067.78;31504777;28;20032;-57
2021/04/14 14:17:41;;;;;;;5.93;2.75;;;;;;;20.41;31.14;102057.97;31485619;28;20402;-61
2021/04/14 14:32:42;;;;;;;4.97;2.33;;;;;;;20.50;31.35;102044.97;31458517;28;20481;-60
2021/04/14 14:47:45;;;;;;;5.17;2.20;;;;;;;20.59;30.96;102034.72;31491691;28;20028;-58
2021/04/14 15:02:49;;;;;;;4.28;1.73;;;;;;;20.69;31.42;102030.47;31490318;28;20341;-57
2021/04/14 15:17:51;;;;;;;19.08;11.55;;;;;;;20.54;31.07;102016.53;31474705;28;20077;-61
2021/04/14 15:32:52;;;;;;;12.10;7.97;;;;;;;20.52;31.57;102013.16;31483887;28;20025;-60
2021/04/14 15:47:53;;;;;;;10.15;7.25;;;;;;;20.53;31.58;102020.13;31478080;28;20032;-61
2021/04/14 16:02:54;;;;;;;8.77;5.90;;;;;;;20.43;32.03;102014.69;31469230;28;20033;-61
2021/04/14 16:17:55;;;;;;;5.03;2.50;;;;;;;20.24;29.41;102019.56;31464583;28;20059;-59
2021/04/14 16:32:56;;;;;;;6.97;3.05;;;;;;;20.06;30.01;102008.50;31503738;28;20475;-59
2021/04/14 16:47:57;;;;;;;5.77;2.40;;;;;;;19.92;30.70;102000.69;31519787;28;20051;-62
2021/04/14 17:02:58;;;;;;;4.55;2.28;;;;;;;19.75;30.82;102010.63;31521618;28;20295;-58
2021/04/14 17:17:59;;;;;;;4.67;2.50;;;;;;;19.59;31.03;102016.06;31477995;28;20639;-59
2021/04/14 17:33:01;;;;;;;3.13;1.73;;;;;;;19.43;31.45;102018.88;31438585;28;20271;-60
2021/04/14 17:48:05;;;;;;;6.95;2.05;;;;;;;19.29;31.39;102040.06;31520642;28;20291;-58
2021/04/14 18:03:07;;;;;;;5.03;1.67;;;;;;;17.73;25.09;102048.84;31504859;28;20028;-58
2021/04/14 18:18:17;;;;;;;4.45;1.38;;;;;;;16.16;25.71;102054.06;31493931;28;20037;-58
2021/04/14 18:33:18;;;;;;;4.68;1.95;;;;;;;15.38;26.75;102069.31;31491387;28;20028;-58
2021/04/14 18:48:19;;;;;;;8.88;6.53;;;;;;;16.89;28.89;102078.16;31507518;28;20041;-60
2021/04/14 19:03:20;;;;;;;8.63;6.22;;;;;;;18.02;29.04;102080.47;31507904;28;20414;-58
2021/04/14 19:18:21;;;;;;;7.70;5.07;;;;;;;18.80;29.65;102090.66;31489537;28;20051;-54
2021/04/14 19:33:22;;;;;;;9.05;5.60;;;;;;;19.19;28.34;102096.94;31480514;28;20360;-56
2021/04/14 19:48:22;;;;;;;6.10;4.13;;;;;;;19.43;29.35;102105.06;31471249;28;20032;-56
2021/04/14 20:03:23;;;;;;;8.77;6.20;;;;;;;19.48;29.73;102118.78;31481800;28;20286;-60
2021/04/14 20:18:25;;;;;;;6.78;5.40;;;;;;;19.44;29.89;102130.47;31451100;28;20310;-59
2021/04/14 20:33:25;;;;;;;7.72;5.40;;;;;;;19.42;30.51;102130.59;31460258;28;20032;-59
2021/04/14 20:48:26;;;;;;;9.83;6.27;;;;;;;19.27;29.90;102141.28;31476664;28;20040;-59
2021/04/14 21:03:27;;;;;;;8.43;5.50;;;;;;;19.15;30.57;102143.75;31464729;28;20291;-59
2021/04/14 21:18:28;;;;;;;7.43;6.03;;;;;;;19.08;30.59;102146.88;31491047;28;20305;-60
2021/04/14 21:33:29;;;;;;;8.07;5.70;;;;;;;19.00;30.86;102148.19;31430922;28;20283;-61
2021/04/14 21:48:30;;;;;;;7.25;5.75;;;;;;;18.94;31.14;102153.00;31432007;28;20307;-58
2021/04/14 22:03:31;;;;;;;10.00;5.93;;;;;;;18.86;31.38;102150.03;31397690;28;20037;-60
2021/04/14 22:18:32;;;;;;;9.20;5.87;;;;;;;18.82;31.99;102166.00;31415227;28;20323;-60
2021/04/14 22:33:33;;;;;;;6.40;4.30;;;;;;;18.40;30.53;102167.66;31449878;28;20408;-58
2021/04/14 22:48:34;;;;;;;8.13;4.90;;;;;;;18.40;31.33;102166.81;31457851;28;20645;-59
2021/04/14 23:03:35;;;;;;;13.23;4.67;;;;;;;18.38;31.74;102166.06;31462328;28;20286;-59
2021/04/14 23:18:36;;;;;;;8.43;5.30;;;;;;;18.35;32.26;102167.09;31501494;28;20664;-60
2021/04/14 23:33:37;;;;;;;7.45;5.03;;;;;;;18.33;32.85;102154.97;31500930;28;20328;-60
2021/04/14 23:48:38;;;;;;;7.17;5.10;;;;;;;18.31;33.90;102160.31;31418642;28;20057;-58
